Time;durP1;ratioP1;P1;durP2;ratioP2;P2;SDS_P1;SDS_P2;PMS_P1;PMS_P2;Temp;Humidity;BMP_temperature;BMP_pressure;BME280_temperature;BME280_humidity;BME280_pressure;Samples;Min_cycle;Max_cycle;Signal;HPM_P1;HPM_P2
2022/06/06 00:01:49;;;;;;;7.73;4.63;;;16.40;99.90;;;;;;4897633;29;20450;-88
2022/06/06 00:04:16;;;;;;;6.07;4.43;;;16.40;99.90;;;;;;4897460;29;20446;-87
2022/06/06 00:06:42;;;;;;;6.73;4.40;;;;;;;;;;4899522;29;20474;-84
2022/06/06 00:09:10;;;;;;;4.97;3.63;;;16.40;99.90;;;;;;4890562;29;20474;-86
2022/06/06 00:11:36;;;;;;;5.07;4.63;;;16.40;99.90;;;;;;4900507;29;20444;-87
2022/06/06 00:14:02;;;;;;;5.10;4.60;;;;;;;;;;4903726;29;20888;-87
2022/06/06 00:16:29;;;;;;;7.63;5.37;;;;;;;;;;4899240;29;20553;-89
2022/06/06 00:18:55;;;;;;;8.33;5.90;;;;;;;;;;4892978;29;20621;-87
2022/06/06 00:21:21;;;;;;;6.77;4.80;;;;;;;;;;4900839;29;20450;-86
2022/06/06 00:23:48;;;;;;;6.57;5.10;;;;;;;;;;4901620;29;20434;-87
2022/06/06 00:26:15;;;;;;;6.87;4.53;;;16.30;99.90;;;;;;4900393;29;20477;-87
2022/06/06 00:28:49;;;;;;;8.57;4.63;;;16.20;99.90;;;;;;4902457;29;20442;-87
2022/06/06 00:36:44;;;;;;;7.60;5.10;;;;;;;;;;4918288;23;20544;-86
2022/06/06 00:39:16;;;;;;;7.37;4.50;;;16.10;99.90;;;;;;4905204;29;20478;-88
2022/06/06 00:41:47;;;;;;;6.10;5.27;;;16.10;99.90;;;;;;4908251;29;20449;-88
2022/06/06 00:44:14;;;;;;;7.70;5.43;;;16.10;99.90;;;;;;4916783;29;21021;-88
2022/06/06 00:46:46;;;;;;;7.00;6.30;;;16.10;99.90;;;;;;4917486;29;20471;-87
2022/06/06 00:49:37;;;;;;;8.00;6.00;;;16.00;99.90;;;;;;4890986;29;20434;-88
2022/06/06 00:52:10;;;;;;;6.33;5.40;;;16.00;99.90;;;;;;4890421;29;20589;-88
2022/06/06 00:54:37;;;;;;;6.03;5.50;;;16.00;99.90;;;;;;4900786;29;20447;-87
2022/06/06 00:57:09;;;;;;;7.07;5.63;;;16.00;99.90;;;;;;4895085;29;20471;-86
2022/06/06 00:59:38;;;;;;;6.90;5.77;;;16.00;99.90;;;;;;4895998;29;20455;-88
2022/06/06 01:02:10;;;;;;;7.43;6.00;;;16.00;99.90;;;;;;4919144;29;20462;-88
2022/06/06 01:04:38;;;;;;;16.20;5.60;;;16.00;99.90;;;;;;4915269;29;20457;-89
2022/06/06 01:07:09;;;;;;;6.30;5.47;;;16.10;99.90;;;;;;4912848;29;20482;-88
2022/06/06 01:09:36;;;;;;;6.20;4.90;;;15.90;99.90;;;;;;4905299;29;20454;-90
2022/06/06 01:12:06;;;;;;;8.80;5.97;;;16.00;99.90;;;;;;4902679;29;20457;-88
2022/06/06 01:14:35;;;;;;;7.40;5.33;;;15.90;99.90;;;;;;4907350;29;20459;-89
2022/06/06 01:17:09;;;;;;;8.70;5.50;;;15.90;99.90;;;;;;4894229;29;20474;-89
2022/06/06 01:19:56;;;;;;;6.67;5.77;;;15.90;99.90;;;;;;4893774;29;20435;-89
2022/06/06 01:22:57;;;;;;;10.33;5.80;;;15.90;99.90;;;;;;4888765;29;20466;-91
2022/06/06 01:25:47;;;;;;;8.77;6.30;;;15.90;99.90;;;;;;4893448;29;20470;-89
2022/06/06 01:28:50;;;;;;;7.93;5.97;;;15.90;99.90;;;;;;4904013;29;20448;-85
2022/06/06 01:31:43;;;;;;;9.37;6.53;;;16.00;99.90;;;;;;4905901;29;20438;-89
2022/06/06 01:34:10;;;;;;;7.97;5.80;;;16.10;99.90;;;;;;4890627;29;20486;-90
2022/06/06 01:36:39;;;;;;;9.60;5.77;;;16.10;99.90;;;;;;4885928;29;20486;-89
2022/06/06 01:39:09;;;;;;;7.83;5.00;;;16.30;99.90;;;;;;4880131;29;20443;-87
2022/06/06 01:41:47;;;;;;;5.23;4.73;;;16.20;99.90;;;;;;4882443;29;20456;-88
2022/06/06 01:44:24;;;;;;;14.50;5.30;;;16.20;99.90;;;;;;4899453;29;20922;-90
2022/06/06 01:46:51;;;;;;;8.53;5.70;;;16.10;99.90;;;;;;4890813;29;20475;-89
2022/06/06 01:49:18;;;;;;;6.40;5.43;;;;;;;;;;4890987;29;20465;-89
2022/06/06 01:52:21;;;;;;;6.30;5.53;;;15.90;99.90;;;;;;4903663;29;20561;-87
2022/06/06 01:54:51;;;;;;;6.40;5.80;;;16.10;99.90;;;;;;4900892;29;20439;-87
2022/06/06 01:57:20;;;;;;;8.33;6.07;;;;;;;;;;4892335;29;20454;-86
2022/06/06 01:59:46;;;;;;;7.83;6.10;;;;;;;;;;4891111;29;21061;-87
2022/06/06 02:02:12;;;;;;;7.60;6.80;;;;;;;;;;4890505;29;20436;-89
2022/06/06 02:04:38;;;;;;;7.37;5.37;;;;;;;;;;4906105;29;20435;-89
2022/06/06 02:07:06;;;;;;;7.80;6.37;;;;;;;;;;4922322;29;20561;-89
2022/06/06 02:09:32;;;;;;;10.73;6.97;;;;;;;;;;4916127;29;20450;-88
2022/06/06 02:11:59;;;;;;;11.37;6.13;;;16.20;99.90;;;;;;4899362;29;20439;-89
2022/06/06 02:14:25;;;;;;;8.50;5.37;;;;;;;;;;4888817;29;20452;-90
2022/06/06 02:16:51;;;;;;;15.30;6.23;;;;;;;;;;4883511;29;20463;-88
2022/06/06 02:19:17;;;;;;;6.27;5.23;;;;;;;;;;4883392;29;20479;-90
2022/06/06 02:21:43;;;;;;;7.47;6.20;;;;;;;;;;4886494;29;21214;-89
2022/06/06 02:24:09;;;;;;;6.47;5.83;;;;;;;;;;4898984;29;21588;-88
2022/06/06 02:26:35;;;;;;;7.73;5.47;;;;;;;;;;4888989;29;20493;-89
2022/06/06 02:29:01;;;;;;;12.20;6.60;;;;;;;;;;4908660;29;20442;-88
2022/06/06 02:31:28;;;;;;;7.73;5.90;;;;;;;;;;4908447;29;20434;-89
2022/06/06 02:34:17;;;;;;;8.13;6.37;;;15.60;99.90;;;;;;4893408;29;20443;-88
2022/06/06 02:36:43;;;;;;;10.53;6.83;;;;;;;;;;4908864;29;20492;-91
2022/06/06 02:39:09;;;;;;;9.20;6.03;;;;;;;;;;4901103;29;20440;-89
2022/06/06 02:41:35;;;;;;;7.37;6.60;;;;;;;;;;4901875;29;20438;-88
2022/06/06 02:44:02;;;;;;;8.30;6.80;;;15.70;99.90;;;;;;4900674;29;20435;-89
2022/06/06 02:46:29;;;;;;;8.57;6.93;;;;;;;;;;4885830;29;20490;-89
2022/06/06 02:48:55;;;;;;;7.90;5.57;;;;;;;;;;4899294;29;20443;-88
2022/06/06 02:51:21;;;;;;;7.97;7.13;;;;;;;;;;4900795;29;20435;-89
2022/06/06 02:53:47;;;;;;;8.27;6.73;;;;;;;;;;4897243;29;20434;-89
2022/06/06 02:56:13;;;;;;;12.80;6.90;;;;;;;;;;4890058;29;20467;-89
2022/06/06 02:58:39;;;;;;;8.30;6.13;;;;;;;;;;4902920;29;21291;-89
2022/06/06 03:01:07;;;;;;;9.63;7.07;;;15.60;99.90;;;;;;4903630;29;20434;-89
2022/06/06 03:03:33;;;;;;;9.67;7.30;;;;;;;;;;4894452;29;20968;-89
2022/06/06 03:06:05;;;;;;;9.40;7.47;;;15.50;99.90;;;;;;4906281;29;20565;-89
2022/06/06 03:08:55;;;;;;;15.37;7.33;;;15.40;99.90;;;;;;4903726;29;20473;-88
2022/06/06 03:11:54;;;;;;;9.03;7.63;;;15.40;99.90;;;;;;4891103;29;20439;-88
2022/06/06 03:14:20;;;;;;;12.20;6.60;;;;;;;;;;4897944;29;20476;-89
2022/06/06 03:23:22;;;;;;;8.00;7.07;;;15.40;99.90;;;;;;4887255;29;20687;-90
2022/06/06 03:26:10;;;;;;;7.97;7.00;;;15.30;99.90;;;;;;4902625;29;20503;-88
2022/06/06 03:28:51;;;;;;;17.37;7.23;;;15.20;99.90;;;;;;4893597;29;20465;-88
2022/06/06 03:31:47;;;;;;;11.43;7.50;;;15.20;99.90;;;;;;4901710;29;21232;-89
2022/06/06 03:34:41;;;;;;;9.23;7.43;;;15.30;99.90;;;;;;4900901;29;20887;-87
2022/06/06 03:37:37;;;;;;;8.90;7.73;;;15.40;99.90;;;;;;4899725;29;20486;-89
2022/06/06 03:40:17;;;;;;;7.40;6.70;;;15.50;99.90;;;;;;4892365;29;20483;-89
2022/06/06 03:43:05;;;;;;;7.73;7.00;;;15.70;99.90;;;;;;4886742;29;20447;-90
2022/06/06 03:45:38;;;;;;;7.60;5.60;;;15.90;99.90;;;;;;4891083;29;20482;-86
2022/06/06 03:48:05;;;;;;;7.90;6.50;;;;;;;;;;4909291;29;20445;-90
2022/06/06 03:50:42;;;;;;;12.53;6.80;;;16.30;99.90;;;;;;4903768;29;20427;-88
2022/06/06 03:53:15;;;;;;;6.90;6.10;;;16.20;99.90;;;;;;4904272;29;20431;-89
2022/06/06 03:55:41;;;;;;;8.50;7.20;;;;;;;;;;4925376;29;20451;-91
2022/06/06 03:58:10;;;;;;;7.73;5.40;;;16.50;99.90;;;;;;4903798;29;20863;-89
2022/06/06 04:00:36;;;;;;;10.03;7.47;;;;;;;;;;4908334;29;20451;-89
2022/06/06 04:03:05;;;;;;;7.63;6.07;;;16.60;99.90;;;;;;4907786;29;20431;-90
2022/06/06 04:05:31;;;;;;;8.10;6.07;;;;;;;;;;4895369;29;20454;-89
2022/06/06 04:07:57;;;;;;;10.57;5.93;;;;;;;;;;4911399;29;20430;-89
2022/06/06 04:10:31;;;;;;;7.80;6.30;;;16.70;99.90;;;;;;4914915;29;20427;-90
2022/06/06 04:13:26;;;;;;;8.20;5.73;;;17.10;99.90;;;;;;4897217;29;20779;-90
2022/06/06 04:15:57;;;;;;;9.70;5.57;;;18.10;99.90;;;;;;4896468;29;20599;-88
2022/06/06 04:18:49;;;;;;;6.20;5.60;;;19.20;99.90;;;;;;4892927;29;20442;-88
2022/06/06 04:21:45;;;;;;;13.20;5.20;;;20.40;99.90;;;;;;4916725;29;20462;-88
2022/06/06 04:24:34;;;;;;;7.80;4.97;;;21.10;99.90;;;;;;4905824;29;20458;-87
2022/06/06 04:27:15;;;;;;;6.13;4.77;;;22.20;99.90;;;;;;4890377;29;20463;-88
2022/06/06 04:30:02;;;;;;;4.90;4.20;;;22.00;99.90;;;;;;4889137;29;20476;-88
2022/06/06 04:33:09;;;;;;;5.70;4.50;;;21.90;99.90;;;;;;4896379;29;20859;-89
2022/06/06 04:35:45;;;;;;;5.53;4.93;;;21.80;99.90;;;;;;4884616;29;20557;-88
2022/06/06 04:38:40;;;;;;;4.93;4.23;;;22.30;99.90;;;;;;4895663;29;20450;-90
2022/06/06 04:41:25;;;;;;;5.13;4.63;;;21.70;99.90;;;;;;4890777;29;20458;-89
2022/06/06 04:43:56;;;;;;;6.70;4.30;;;22.60;99.90;;;;;;4882885;29;20483;-88
2022/06/06 04:46:29;;;;;;;7.80;4.90;;;23.00;99.90;;;;;;4891743;29;20587;-89
2022/06/06 04:48:56;;;;;;;5.70;5.10;;;24.10;99.90;;;;;;4885051;29;20438;-89
2022/06/06 04:51:23;;;;;;;4.53;4.13;;;25.60;99.90;;;;;;4889495;29;20502;-89
2022/06/06 04:53:54;;;;;;;4.40;3.83;;;26.40;99.90;;;;;;4895191;29;20494;-88
2022/06/06 04:56:21;;;;;;;4.93;3.40;;;26.90;99.90;;;;;;4880446;29;20475;-90
2022/06/06 04:58:49;;;;;;;5.00;4.50;;;26.10;99.90;;;;;;4877504;29;20452;-87
2022/06/06 05:01:15;;;;;;;5.20;4.17;;;26.40;99.90;;;;;;4887501;29;20458;-89
2022/06/06 05:03:41;;;;;;;7.63;4.53;;;;;;;;;;4876681;29;20489;-86
2022/06/06 05:06:28;;;;;;;6.23;4.10;;;24.70;99.90;;;;;;4880243;29;20482;-87
2022/06/06 05:09:16;;;;;;;4.90;4.20;;;22.40;99.90;;;;;;4898332;29;20586;-89
2022/06/06 05:11:41;;;;;;;7.87;5.20;;;;;;;;;;4899689;29;20448;-89
2022/06/06 05:14:14;;;;;;;8.27;4.10;;;23.20;99.90;;;;;;4882192;29;20443;-87
2022/06/06 05:17:10;;;;;;;5.27;3.70;;;24.00;99.90;;;;;;4897264;29;20549;-89
2022/06/06 05:19:36;;;;;;;6.30;3.43;;;;;;;;;;4898263;29;20540;-89
2022/06/06 05:22:28;;;;;;;4.00;3.70;;;25.90;99.90;;;;;;4898489;29;20543;-91
2022/06/06 05:25:20;;;;;;;4.20;3.53;;;26.10;99.90;;;;;;4895562;29;20876;-87
2022/06/06 05:28:02;;;;;;;12.07;4.03;;;26.00;99.90;;;;;;4881556;29;20456;-87
2022/06/06 05:30:35;;;;;;;5.17;3.57;;;25.10;99.90;;;;;;4888257;29;20442;-90
2022/06/06 05:33:24;;;;;;;7.77;4.10;;;25.30;99.90;;;;;;4888373;29;20437;-89
2022/06/06 05:36:13;;;;;;;14.77;4.30;;;26.20;99.90;;;;;;4912229;29;20542;-88
2022/06/06 05:39:00;;;;;;;4.80;3.73;;;23.90;99.90;;;;;;4901144;29;20468;-87
2022/06/06 05:41:52;;;;;;;8.80;4.23;;;23.30;99.90;;;;;;4900971;29;20447;-90
2022/06/06 05:44:36;;;;;;;8.67;4.20;;;24.50;99.90;;;;;;4898066;29;20494;-87
2022/06/06 05:47:39;;;;;;;5.33;3.80;;;24.60;99.90;;;;;;4898360;29;20471;-87
2022/06/06 05:50:22;;;;;;;6.60;4.50;;;22.70;99.90;;;;;;4899396;29;20434;-87
2022/06/06 05:52:48;;;;;;;5.40;3.87;;;;;;;;;;4900565;29;20474;-88
2022/06/06 05:55:40;;;;;;;4.73;3.73;;;25.80;99.90;;;;;;4881244;29;20478;-86
2022/06/06 05:58:19;;;;;;;4.23;3.73;;;27.10;99.90;;;;;;4898571;29;20452;-89
2022/06/06 06:00:53;;;;;;;4.13;3.73;;;27.90;99.90;;;;;;4883048;29;20927;-88
2022/06/06 06:03:31;;;;;;;4.63;4.20;;;28.90;99.90;;;;;;4882627;29;20460;-89
2022/06/06 06:06:33;;;;;;;4.90;4.40;;;27.70;99.90;;;;;;4884938;29;20471;-88
2022/06/06 06:09:14;;;;;;;6.20;3.70;;;28.50;99.90;;;;;;4890703;29;20442;-89
2022/06/06 06:12:04;;;;;;;6.30;4.13;;;27.70;99.90;;;;;;4901508;29;21012;-88
2022/06/06 06:14:37;;;;;;;4.70;3.40;;;28.00;99.90;;;;;;4886828;29;20437;-89
2022/06/06 06:17:03;;;;;;;7.20;4.53;;;;;;;;;;4900916;29;21005;-90
2022/06/06 06:19:39;;;;;;;6.23;3.77;;;24.40;99.90;;;;;;4901000;29;20439;-88
2022/06/06 06:22:06;;;;;;;5.90;4.17;;;23.60;99.90;;;;;;4888812;29;20440;-90
2022/06/06 06:24:36;;;;;;;6.00;4.57;;;24.20;99.90;;;;;;4892517;29;20446;-89
2022/06/06 06:27:03;;;;;;;7.23;4.00;;;23.90;99.90;;;;;;4894757;29;20503;-88
2022/06/06 06:29:30;;;;;;;21.10;6.00;;;;;;;;;;4893130;29;20462;-90
2022/06/06 06:32:22;;;;;;;4.80;4.23;;;22.30;99.90;;;;;;4904722;29;20429;-90
2022/06/06 06:35:25;;;;;;;6.90;5.40;;;21.80;99.90;;;;;;4885974;29;20462;-88
2022/06/06 06:37:51;;;;;;;8.93;4.87;;;;;;;;;;4906715;29;20457;-87
2022/06/06 06:40:17;;;;;;;7.23;4.50;;;;;;;;;;4886132;29;20442;-90
2022/06/06 06:43:07;;;;;;;5.13;4.57;;;24.70;99.90;;;;;;4884456;29;20463;-87
2022/06/06 06:45:39;;;;;;;7.50;4.50;;;23.70;99.90;;;;;;4896661;29;20474;-90
2022/06/06 06:48:11;;;;;;;7.73;5.07;;;23.30;99.90;;;;;;4919006;29;20515;-89
2022/06/06 06:50:36;;;;;;;5.70;4.70;;;;;;;;;;4910015;29;20461;-85
2022/06/06 06:53:35;;;;;;;6.60;5.20;;;21.60;99.90;;;;;;4911965;29;20458;-88
2022/06/06 06:56:09;;;;;;;7.17;4.87;;;21.50;99.90;;;;;;4890600;29;20502;-88
2022/06/06 06:58:55;;;;;;;7.80;5.57;;;20.80;99.90;;;;;;4902844;29;20472;-90
2022/06/06 07:10:44;;;;;;;5.93;5.33;;;22.20;99.90;;;;;;4890406;29;20449;-89
2022/06/06 07:13:43;;;;;;;5.40;4.90;;;22.20;99.90;;;;;;4899446;29;20447;-90
2022/06/06 07:16:38;;;;;;;8.27;4.37;;;22.80;99.90;;;;;;4932389;23;20963;-81
2022/06/06 07:19:22;;;;;;;8.13;4.80;;;24.90;99.90;;;;;;4933052;29;20429;-82
2022/06/06 07:21:50;;;;;;;5.90;4.30;;;25.60;99.90;;;;;;4932246;29;20437;-84
2022/06/06 07:24:21;;;;;;;6.17;4.30;;;25.60;99.90;;;;;;4929687;29;20867;-82
2022/06/06 07:26:48;;;;;;;6.67;4.57;;;27.10;99.90;;;;;;4928183;29;20458;-81
2022/06/06 07:29:17;;;;;;;6.33;4.00;;;28.40;99.90;;;;;;4930525;29;20426;-81
2022/06/06 07:32:03;;;;;;;6.73;4.70;;;27.30;99.90;;;;;;4930232;29;20463;-82
2022/06/06 07:35:00;;;;;;;8.60;5.33;;;26.40;99.90;;;;;;4928041;29;20466;-82
2022/06/06 07:38:16;;;;;;;13.17;4.23;;;25.10;99.90;;;;;;4917025;29;20446;-82
2022/06/06 07:40:53;;;;;;;6.23;5.10;;;24.20;99.90;;;;;;4937175;29;20426;-88
2022/06/06 07:43:48;;;;;;;7.20;4.07;;;23.20;99.90;;;;;;4950755;29;20445;-88
2022/06/06 07:46:56;;;;;;;7.67;4.50;;;23.70;99.90;;;;;;4963866;28;20466;-88
2022/06/06 07:49:41;;;;;;;5.07;3.87;;;23.40;99.90;;;;;;4941789;28;20424;-83
2022/06/06 07:52:26;;;;;;;6.00;4.00;;;23.60;99.90;;;;;;4927033;29;20451;-84
2022/06/06 07:55:01;;;;;;;9.70;4.80;;;24.10;99.90;;;;;;4939375;29;20459;-84
2022/06/06 07:57:35;;;;;;;4.60;3.70;;;25.10;99.90;;;;;;4931311;29;20432;-84
2022/06/06 08:00:16;;;;;;;6.43;4.43;;;26.70;99.90;;;;;;4926051;29;21464;-84
2022/06/06 08:02:59;;;;;;;5.87;3.70;;;28.20;99.90;;;;;;4931129;29;20984;-82
2022/06/06 08:05:50;;;;;;;5.93;4.63;;;29.30;99.90;;;;;;4933833;29;20461;-83
2022/06/06 08:08:38;;;;;;;11.20;4.80;;;30.70;99.90;;;;;;4936596;29;20440;-83
2022/06/06 08:11:33;;;;;;;5.60;3.77;;;29.00;98.70;;;;;;4916699;29;20480;-83
2022/06/06 08:14:20;;;;;;;5.03;3.87;;;26.70;99.90;;;;;;4933382;29;20436;-83
2022/06/06 08:16:57;;;;;;;8.90;4.00;;;25.40;99.90;;;;;;4930260;29;20506;-83
2022/06/06 08:19:41;;;;;;;5.50;3.63;;;24.30;99.90;;;;;;4933209;29;20865;-83
2022/06/06 08:22:09;;;;;;;4.73;4.00;;;23.50;99.90;;;;;;4935844;29;20397;-84
2022/06/06 08:24:39;;;;;;;4.00;3.60;;;24.80;99.90;;;;;;4947781;28;20441;-84
2022/06/06 08:27:09;;;;;;;3.50;3.20;;;24.80;99.90;;;;;;4951031;29;20451;-83
2022/06/06 08:29:37;;;;;;;4.60;3.70;;;24.60;99.90;;;;;;4934232;29;20429;-83
2022/06/06 08:32:05;;;;;;;3.70;3.10;;;23.90;99.90;;;;;;4928012;29;20948;-83
2022/06/06 08:34:31;;;;;;;5.50;3.67;;;;;;;;;;4939063;28;20468;-84
2022/06/06 08:37:18;;;;;;;4.10;3.80;;;26.30;99.90;;;;;;4928966;29;20449;-84
2022/06/06 08:39:56;;;;;;;5.97;4.00;;;27.30;99.90;;;;;;4929694;29;20455;-83
2022/06/06 08:42:21;;;;;;;3.80;3.00;;;;;;;;;;4927564;29;20464;-83
2022/06/06 08:44:47;;;;;;;5.30;3.17;;;;;;;;;;4931617;29;20457;-82
2022/06/06 08:47:25;;;;;;;5.10;3.93;;;27.00;99.90;;;;;;4947741;29;20468;-84
2022/06/06 08:53:38;;;;;;;8.17;4.20;;;27.30;99.90;;;;;;4910408;29;20809;-83
2022/06/06 08:56:41;;;;;;;10.40;4.00;;;28.60;99.90;;;;;;4904220;29;21081;-83
2022/06/06 08:59:27;;;;;;;5.00;4.00;;;29.00;99.90;;;;;;4923551;29;20450;-84
2022/06/06 09:02:06;;;;;;;5.70;3.90;;;29.70;99.90;;;;;;4931726;28;20479;-83
2022/06/06 09:04:55;;;;;;;5.33;3.50;;;29.90;99.90;;;;;;4937696;29;21216;-83
2022/06/06 09:07:58;;;;;;;4.00;3.70;;;30.80;98.70;;;;;;4954199;28;21302;-83
2022/06/06 09:10:45;;;;;;;5.33;3.60;;;30.60;95.80;;;;;;4923068;29;20530;-83
2022/06/06 09:14:01;;;;;;;5.07;4.00;;;29.70;98.10;;;;;;4922407;29;21272;-82
2022/06/06 09:17:01;;;;;;;6.40;3.87;;;31.20;99.90;;;;;;4885296;29;20491;-83
2022/06/06 09:19:48;;;;;;;5.30;4.10;;;32.70;99.90;;;;;;4858754;29;20444;-83
2022/06/06 09:22:40;;;;;;;8.60;5.53;;;31.30;91.40;;;;;;4919929;29;20487;-82
2022/06/06 09:25:06;;;;;;;5.30;4.80;;;;;;;;;;4900805;28;20844;-82
2022/06/06 09:27:55;;;;;;;5.77;5.30;;;30.90;88.60;;;;;;4927146;29;20476;-83
2022/06/06 09:30:45;;;;;;;5.53;5.10;;;28.90;92.10;;;;;;4931464;29;20505;-83
2022/06/06 09:33:58;;;;;;;5.20;4.80;;;29.40;93.80;;;;;;4928997;29;21238;-82
2022/06/06 09:36:44;;;;;;;5.23;4.43;;;27.40;95.40;;;;;;4933817;29;20492;-82
2022/06/06 09:39:28;;;;;;;5.03;3.97;;;28.90;99.90;;;;;;4951647;29;20477;-83
2022/06/06 09:42:09;;;;;;;4.83;4.10;;;29.20;99.90;;;;;;4953106;29;20419;-84
2022/06/06 09:44:46;;;;;;;6.50;4.63;;;28.90;92.30;;;;;;4923881;29;20463;-83
2022/06/06 09:47:40;;;;;;;4.17;3.73;;;28.70;93.50;;;;;;4923858;29;20473;-83
2022/06/06 09:50:59;;;;;;;5.67;4.63;;;28.30;94.10;;;;;;4925291;28;20491;-83
2022/06/06 10:00:21;;;;;;;14.60;3.97;;;26.40;96.20;;;;;;4927998;29;20444;-82
2022/06/06 10:03:16;;;;;;;3.27;2.97;;;25.30;94.60;;;;;;4918199;29;20592;-82
2022/06/06 10:05:51;;;;;;;2.80;2.30;;;26.90;97.30;;;;;;4931775;28;20453;-84
2022/06/06 10:08:17;;;;;;;3.20;2.40;;;;;;;;;;4929281;29;20470;-82
2022/06/06 10:11:04;;;;;;;4.10;3.80;;;29.00;91.60;;;;;;4929854;29;20901;-81
2022/06/06 10:13:41;;;;;;;3.97;3.70;;;29.40;89.60;;;;;;4924873;29;20443;-84
2022/06/06 10:16:26;;;;;;;4.30;4.00;;;30.10;90.30;;;;;;4931572;29;20564;-84
2022/06/06 10:19:19;;;;;;;4.30;4.10;;;28.70;88.10;;;;;;4942214;28;20440;-84
2022/06/06 10:22:08;;;;;;;4.97;4.57;;;27.80;88.50;;;;;;4934537;29;20424;-83
2022/06/06 10:24:34;;;;;;;4.40;4.10;;;;;;;;;;4921149;29;21069;-82
2022/06/06 10:27:15;;;;;;;4.77;4.33;;;27.20;99.40;;;;;;4934862;23;21255;-83
2022/06/06 10:30:16;;;;;;;4.30;4.00;;;28.30;91.20;;;;;;4924258;29;20474;-84
2022/06/06 10:32:56;;;;;;;4.37;3.97;;;28.70;96.10;;;;;;4924477;29;20440;-84
2022/06/06 10:35:52;;;;;;;5.50;3.67;;;28.30;92.00;;;;;;4925760;29;20700;-84
2022/06/06 10:38:45;;;;;;;2.97;2.77;;;26.80;97.20;;;;;;4905566;29;20432;-83
2022/06/06 10:41:39;;;;;;;4.43;3.20;;;26.70;93.60;;;;;;4907326;29;20446;-83
2022/06/06 10:44:20;;;;;;;3.60;3.30;;;27.00;93.90;;;;;;4912437;29;20445;-83
2022/06/06 10:47:03;;;;;;;3.40;3.10;;;26.50;92.20;;;;;;4909432;29;20481;-80
2022/06/06 10:49:29;;;;;;;4.37;3.00;;;;;;;;;;4909348;29;20417;-84
2022/06/06 10:52:36;;;;;;;3.40;3.17;;;25.50;95.00;;;;;;4899894;29;20446;-82
2022/06/06 10:55:17;;;;;;;4.80;2.73;;;25.00;97.40;;;;;;4895890;29;20447;-83
2022/06/06 10:57:43;;;;;;;4.67;3.10;;;;;;;;;;4918983;29;20792;-81
2022/06/06 11:00:37;;;;;;;2.83;2.53;;;24.40;96.80;;;;;;4905084;29;20476;-81
2022/06/06 11:03:40;;;;;;;3.43;2.03;;;23.60;96.70;;;;;;4921497;29;20446;-82
2022/06/06 11:06:45;;;;;;;2.70;2.43;;;24.30;98.40;;;;;;4902330;29;20466;-83
2022/06/06 11:09:32;;;;;;;3.73;2.47;;;24.90;98.80;;;;;;4909570;29;20442;-83
2022/06/06 11:12:15;;;;;;;3.83;2.10;;;24.70;96.90;;;;;;4910676;29;20445;-81
2022/06/06 11:14:46;;;;;;;2.47;2.17;;;24.30;96.30;;;;;;4913321;29;20448;-83
2022/06/06 11:17:43;;;;;;;4.10;2.20;;;24.10;99.90;;;;;;4909965;29;20853;-83
2022/06/06 11:20:36;;;;;;;3.57;2.50;;;24.50;98.30;;;;;;4919940;29;20452;-78
2022/06/06 11:23:24;;;;;;;5.00;2.40;;;24.20;99.90;;;;;;4908559;29;20457;-82
2022/06/06 11:26:18;;;;;;;2.97;2.27;;;24.70;99.90;;;;;;4912809;29;20457;-79
2022/06/06 11:29:06;;;;;;;5.17;2.40;;;24.80;99.90;;;;;;4921953;29;21181;-83
2022/06/06 11:32:07;;;;;;;3.00;2.33;;;24.20;99.90;;;;;;4917880;29;20448;-83
2022/06/06 11:34:57;;;;;;;3.67;2.60;;;24.00;99.90;;;;;;4910087;29;20449;-82
2022/06/06 11:37:43;;;;;;;6.97;2.70;;;24.70;99.90;;;;;;4911235;29;20460;-81
2022/06/06 11:40:31;;;;;;;3.70;2.43;;;24.70;99.90;;;;;;4910685;29;20609;-81
2022/06/06 11:43:37;;;;;;;6.37;2.83;;;24.50;99.90;;;;;;4907285;29;20444;-79
2022/06/06 11:46:39;;;;;;;3.33;2.53;;;24.40;99.90;;;;;;4908088;29;21003;-85
2022/06/06 11:49:42;;;;;;;2.70;2.50;;;24.80;99.90;;;;;;4902059;29;21170;-83
2022/06/06 11:52:29;;;;;;;2.93;2.20;;;25.00;99.90;;;;;;4919758;29;20444;-83
2022/06/06 11:55:10;;;;;;;3.73;2.40;;;24.90;99.90;;;;;;4907011;29;20445;-83
2022/06/06 11:57:56;;;;;;;3.13;2.47;;;24.10;99.90;;;;;;4906428;29;20461;-82
2022/06/06 12:00:47;;;;;;;3.17;2.23;;;24.50;99.60;;;;;;4922516;29;20467;-82
2022/06/06 12:03:31;;;;;;;2.90;2.17;;;25.20;99.90;;;;;;4909107;29;20447;-84
2022/06/06 12:06:38;;;;;;;3.60;2.30;;;26.10;99.90;;;;;;4910041;29;20473;-85
2022/06/06 12:09:18;;;;;;;3.97;2.40;;;26.70;99.90;;;;;;4876625;29;20545;-84
2022/06/06 12:12:30;;;;;;;5.43;2.53;;;26.10;97.20;;;;;;4872008;29;20429;-81
2022/06/06 12:15:26;;;;;;;3.80;2.90;;;24.70;99.80;;;;;;4857056;29;20554;-83
2022/06/06 12:18:26;;;;;;;3.10;2.47;;;24.20;99.90;;;;;;4916074;29;20454;-84
2022/06/06 12:21:10;;;;;;;3.30;2.37;;;24.40;99.90;;;;;;4909655;29;20550;-84
2022/06/06 12:23:41;;;;;;;2.90;2.50;;;24.70;99.90;;;;;;4908396;29;20445;-82
2022/06/06 12:26:19;;;;;;;3.90;2.70;;;24.40;99.90;;;;;;4926800;29;20455;-81
2022/06/06 12:28:44;;;;;;;3.00;2.40;;;;;;;;;;4910150;29;20453;-79
2022/06/06 12:31:36;;;;;;;3.40;2.50;;;23.50;99.90;;;;;;4907740;29;20430;-82
2022/06/06 12:34:14;;;;;;;3.07;2.77;;;23.30;99.90;;;;;;4904189;29;20451;-80
2022/06/06 12:37:08;;;;;;;3.20;2.60;;;23.40;99.90;;;;;;4902709;29;20648;-80
2022/06/06 12:39:57;;;;;;;3.03;2.20;;;22.60;99.90;;;;;;4904935;29;20437;-81
2022/06/06 12:42:46;;;;;;;6.00;2.80;;;22.40;99.90;;;;;;4903297;29;20449;-79
2022/06/06 12:45:51;;;;;;;5.00;2.73;;;22.30;99.90;;;;;;4905604;29;20451;-79
2022/06/06 12:48:25;;;;;;;3.33;2.50;;;21.90;99.90;;;;;;4889509;29;20460;-81
2022/06/06 12:51:12;;;;;;;5.43;2.93;;;21.90;99.90;;;;;;4903566;29;20446;-81
2022/06/06 12:54:06;;;;;;;5.40;2.57;;;22.30;99.90;;;;;;4908964;29;20470;-80
2022/06/06 12:56:52;;;;;;;3.73;3.00;;;22.40;99.90;;;;;;4903623;29;20501;-82
2022/06/06 12:59:53;;;;;;;3.97;2.63;;;22.30;99.90;;;;;;4917153;29;20442;-81
2022/06/06 13:03:02;;;;;;;5.40;3.10;;;22.30;99.90;;;;;;4903473;29;20446;-82
2022/06/06 13:05:33;;;;;;;3.87;2.87;;;22.10;99.90;;;;;;4917390;29;20481;-81
2022/06/06 13:08:11;;;;;;;4.30;2.80;;;22.30;99.90;;;;;;4901437;29;20534;-84
2022/06/06 13:11:05;;;;;;;5.10;2.90;;;22.00;99.90;;;;;;4908241;29;20472;-83
2022/06/06 13:13:46;;;;;;;4.07;2.37;;;22.00;99.90;;;;;;4912828;29;20438;-82
2022/06/06 13:16:38;;;;;;;3.77;2.57;;;21.50;99.90;;;;;;4903509;29;20474;-81
2022/06/06 13:19:28;;;;;;;2.43;2.10;;;21.50;99.90;;;;;;4899596;29;20445;-83
2022/06/06 13:21:54;;;;;;;2.60;1.70;;;;;;;;;;4906623;29;20462;-84
2022/06/06 13:24:50;;;;;;;4.00;2.30;;;21.60;99.90;;;;;;4912830;29;20461;-82
2022/06/06 13:27:32;;;;;;;4.17;2.73;;;21.80;99.90;;;;;;4901368;29;20485;-82
2022/06/06 13:30:17;;;;;;;4.23;2.00;;;22.00;99.90;;;;;;4902417;29;20441;-81
2022/06/06 13:32:43;;;;;;;4.97;2.63;;;;;;;;;;4902673;29;21014;-80
2022/06/06 13:35:46;;;;;;;6.63;2.80;;;22.30;99.90;;;;;;4899120;29;20450;-83
2022/06/06 13:38:38;;;;;;;7.03;2.70;;;22.50;99.90;;;;;;4898919;29;20510;-82
2022/06/06 13:41:07;;;;;;;4.17;2.73;;;22.40;99.90;;;;;;4895438;29;20446;-81
2022/06/06 13:43:58;;;;;;;2.57;2.33;;;22.30;99.90;;;;;;4896444;29;20446;-78
2022/06/06 13:46:48;;;;;;;2.30;1.90;;;22.50;99.90;;;;;;4906085;29;20541;-83
2022/06/06 13:49:41;;;;;;;3.87;3.03;;;22.70;99.90;;;;;;4898292;29;20430;-79
2022/06/06 13:52:31;;;;;;;3.33;2.20;;;22.90;99.90;;;;;;4896056;29;21456;-83
2022/06/06 13:54:57;;;;;;;3.00;2.63;;;;;;;;;;4896686;29;20818;-82
2022/06/06 13:57:35;;;;;;;4.97;2.43;;;23.40;99.90;;;;;;4902830;29;20462;-77
2022/06/06 14:00:03;;;;;;;5.30;2.17;;;24.20;99.90;;;;;;4906080;29;20458;-82
2022/06/06 14:02:48;;;;;;;5.23;2.17;;;24.00;99.90;;;;;;4906560;29;20466;-80
2022/06/06 14:05:25;;;;;;;3.20;2.60;;;23.70;99.90;;;;;;4903443;29;20455;-85
2022/06/06 14:07:51;;;;;;;3.87;2.30;;;;;;;;;;4904716;29;20543;-81
2022/06/06 14:10:19;;;;;;;2.63;2.43;;;22.80;99.90;;;;;;4903531;29;20520;-83
2022/06/06 14:12:46;;;;;;;2.50;2.30;;;;;;;;;;4905071;29;20440;-82
2022/06/06 14:15:15;;;;;;;2.47;2.27;;;22.20;99.90;;;;;;4898862;29;20525;-82
2022/06/06 14:17:48;;;;;;;2.73;2.47;;;21.90;99.90;;;;;;4915762;29;20587;-82
2022/06/06 14:20:32;;;;;;;4.70;2.33;;;21.50;99.90;;;;;;4914361;29;20531;-84
2022/06/06 14:23:20;;;;;;;3.27;2.97;;;21.40;99.90;;;;;;4914209;29;21118;-85
2022/06/06 14:25:48;;;;;;;4.40;2.77;;;21.60;99.90;;;;;;4919717;29;20438;-85
2022/06/06 14:28:28;;;;;;;2.87;2.57;;;21.80;99.90;;;;;;4927642;29;20573;-86
2022/06/06 14:30:55;;;;;;;4.67;2.60;;;22.00;99.90;;;;;;4916786;29;20440;-84
2022/06/06 14:33:31;;;;;;;2.90;2.03;;;22.00;99.90;;;;;;4912064;29;20435;-82
2022/06/06 14:36:19;;;;;;;2.97;2.53;;;21.70;99.90;;;;;;4903090;29;20514;-84
2022/06/06 14:38:44;;;;;;;3.20;2.77;;;;;;;;;;4906056;29;20439;-82
2022/06/06 14:41:14;;;;;;;2.23;1.80;;;21.30;99.90;;;;;;4910094;29;20443;-83
2022/06/06 14:43:56;;;;;;;4.63;2.63;;;21.20;99.90;;;;;;4917829;29;20681;-83
2022/06/06 14:46:22;;;;;;;3.10;2.57;;;21.20;99.90;;;;;;4905229;29;20487;-84